Time;durP1;ratioP1;P1;durP2;ratioP2;P2;SDS_P1;SDS_P2;PMS_P1;PMS_P2;Temp;Humidity;BMP_temperature;BMP_pressure;BME280_temperature;BME280_humidity;BME280_pressure;Samples;Min_cycle;Max_cycle;Signal;HPM_P1;HPM_P2
2023/05/11 00:09:18;;;;;;;5.20;3.30;;;;;;;8.01;46.41;99810.73;436517;1254;140024;-64
2023/05/11 00:19:24;;;;;;;4.60;2.60;;;;;;;7.88;46.65;99814.52;436777;1254;138174;-64
2023/05/11 00:29:29;;;;;;;3.80;2.00;;;;;;;7.78;46.99;99806.29;436835;1251;139008;-65
2023/05/11 00:39:39;;;;;;;5.10;2.60;;;;;;;7.71;46.64;99810.26;436626;1251;138685;-63
2023/05/11 00:49:45;;;;;;;4.50;2.30;;;;;;;7.61;46.86;99811.42;436885;1254;137947;-65
2023/05/11 00:59:51;;;;;;;3.40;2.40;;;;;;;7.56;46.91;99811.15;437059;1251;140286;-65
2023/05/11 01:10:06;;;;;;;5.50;2.80;;;;;;;7.49;47.14;99807.67;437009;1251;140587;-63
2023/05/11 01:20:17;;;;;;;4.30;2.50;;;;;;;7.40;47.26;99804.92;436588;1250;139797;-64
2023/05/11 01:30:36;;;;;;;3.70;2.60;;;;;;;7.27;47.48;99801.37;436882;1254;138346;-64
2023/05/11 01:40:44;;;;;;;2.80;2.30;;;;;;;7.14;47.76;99794.99;436989;1254;138129;-63
2023/05/11 01:50:52;;;;;;;4.00;2.10;;;;;;;7.05;47.95;99801.52;437785;1250;138859;-65
2023/05/11 02:00:59;;;;;;;5.30;3.70;;;;;;;6.96;48.30;99803.16;436482;1251;139745;-63
2023/05/11 02:11:07;;;;;;;4.40;2.40;;;;;;;6.85;48.53;99801.17;436648;1250;139392;-63
2023/05/11 02:21:15;;;;;;;5.00;2.40;;;;;;;6.77;48.96;99797.22;436224;1251;139205;-64
2023/05/11 02:31:27;;;;;;;12.70;3.10;;;;;;;6.67;49.30;99799.17;436351;1250;138164;-64
2023/05/11 02:41:37;;;;;;;6.00;3.10;;;;;;;6.53;49.59;99807.13;436483;1254;139911;-64
2023/05/11 02:51:47;;;;;;;5.10;3.00;;;;;;;6.46;49.67;99809.86;436538;1253;139151;-64
2023/05/11 03:01:53;;;;;;;5.40;2.90;;;;;;;6.43;49.70;99807.73;436362;1254;140663;-65
2023/05/11 03:12:01;;;;;;;4.70;3.00;;;;;;;6.47;49.80;99807.73;436509;1250;139861;-64
2023/05/11 03:22:08;;;;;;;5.50;2.40;;;;;;;6.54;49.65;99810.36;437365;1251;139084;-65
2023/05/11 03:32:13;;;;;;;7.00;2.50;;;;;;;6.67;49.41;99821.46;437738;1251;138923;-65
2023/05/11 03:42:21;;;;;;;3.50;3.00;;;;;;;6.81;49.28;99825.70;436658;1251;139213;-63
2023/05/11 03:52:26;;;;;;;;;;;;;;;6.99;49.04;99832.08;436338;1253;139021;-65
2023/05/11 04:02:33;;;;;;;6.70;3.40;;;;;;;7.20;48.90;99837.54;436456;1254;124643;-64
2023/05/11 04:12:39;;;;;;;5.20;2.50;;;;;;;7.76;48.48;99834.58;436581;1251;138346;-65
2023/05/11 04:22:45;;;;;;;5.10;2.70;;;;;;;13.15;43.81;99831.78;436172;1250;139749;-63
2023/05/11 04:32:51;;;;;;;6.40;2.10;;;;;;;16.99;37.05;99825.20;436317;1254;138877;-64
2023/05/11 04:42:57;;;;;;;5.30;2.40;;;;;;;12.85;37.59;99834.10;436388;1251;139090;-63
2023/05/11 04:53:02;;;;;;;3.20;2.30;;;;;;;13.18;38.91;99840.20;436668;1251;138609;-65
2023/05/11 05:03:08;;;;;;;7.30;2.80;;;;;;;19.92;32.65;99833.78;436637;1251;139950;-65
2023/05/11 05:13:15;;;;;;;4.10;1.90;;;;;;;24.24;28.82;99832.41;436457;1254;138400;-64
2023/05/11 05:23:21;;;;;;;4.00;2.50;;;;;;;27.03;25.48;99825.08;436507;1251;139044;-63
2023/05/11 05:33:27;;;;;;;4.20;2.40;;;;;;;28.59;22.83;99826.14;436360;1251;139390;-63
2023/05/11 05:43:32;;;;;;;4.70;2.30;;;;;;;29.40;21.30;99828.49;435992;1254;138842;-63
2023/05/11 05:53:38;;;;;;;3.20;1.80;;;;;;;30.82;19.77;99833.34;435524;1254;138895;-63
2023/05/11 06:03:44;;;;;;;4.00;2.40;;;;;;;30.79;19.08;99837.34;436534;1253;140262;-63
2023/05/11 06:13:51;;;;;;;3.50;2.20;;;;;;;31.02;18.69;99834.74;437068;1253;138963;-64
2023/05/11 06:23:56;;;;;;;2.20;1.80;;;;;;;31.99;17.80;99835.97;436623;1254;138630;-62
2023/05/11 06:34:03;;;;;;;5.00;1.80;;;;;;;32.59;18.07;99835.37;436714;1251;139898;-64
2023/05/11 06:44:09;;;;;;;3.30;2.00;;;;;;;33.91;17.20;99835.92;436749;1250;139154;-62
2023/05/11 06:54:14;;;;;;;2.50;1.90;;;;;;;34.74;16.26;99834.73;436009;1254;138585;-64
2023/05/11 07:04:20;;;;;;;2.50;1.80;;;;;;;35.17;15.79;99836.13;436608;1250;139044;-63
2023/05/11 07:14:26;;;;;;;3.60;1.60;;;;;;;34.40;15.53;99839.26;437311;1254;181066;-62
2023/05/11 07:24:32;;;;;;;3.00;1.90;;;;;;;34.04;15.72;99828.73;436425;1250;138487;-63
2023/05/11 07:34:38;;;;;;;2.20;1.90;;;;;;;34.73;15.51;99835.34;436449;1250;138975;-63
2023/05/11 07:44:44;;;;;;;2.60;1.70;;;;;;;34.91;15.63;99825.02;436596;1254;142145;-64
2023/05/11 07:54:49;;;;;;;2.40;2.30;;;;;;;36.70;14.77;99811.54;436407;1254;140594;-62
2023/05/11 08:04:55;;;;;;;2.60;1.40;;;;;;;35.04;14.99;99821.29;436882;1251;139848;-64
2023/05/11 08:15:01;;;;;;;2.20;1.30;;;;;;;27.39;18.37;99820.67;436865;1254;139502;-63
2023/05/11 08:25:09;;;;;;;4.90;1.70;;;;;;;22.01;22.48;99825.09;437620;1254;139042;-63
2023/05/11 08:35:13;;;;;;;;;;;;;;;20.44;24.93;99816.91;437053;1251;138425;-64
2023/05/11 08:45:20;;;;;;;3.40;1.70;;;;;;;19.86;25.95;99822.98;437015;1251;125774;-65
2023/05/11 08:55:28;;;;;;;2.70;1.90;;;;;;;19.61;26.75;99821.52;436736;1254;139631;-64
2023/05/11 09:05:35;;;;;;;3.20;1.80;;;;;;;19.37;27.12;99814.05;436420;1254;138873;-64
2023/05/11 09:15:41;;;;;;;2.60;1.40;;;;;;;18.88;27.74;99824.08;437363;1251;138469;-64
2023/05/11 09:25:48;;;;;;;3.50;2.40;;;;;;;18.53;28.08;99824.35;436545;1253;138398;-64
2023/05/11 09:35:55;;;;;;;2.70;1.70;;;;;;;18.21;28.74;99825.91;436376;1254;138946;-64
2023/05/11 09:46:05;;;;;;;5.60;1.90;;;;;;;18.11;29.14;99820.41;436327;1254;138755;-62
2023/05/11 09:56:14;;;;;;;2.10;1.70;;;;;;;18.10;29.32;99804.93;436129;1254;139672;-64
2023/05/11 10:06:20;;;;;;;2.00;1.70;;;;;;;18.07;29.67;99801.08;436463;1254;138664;-64
2023/05/11 10:16:26;;;;;;;4.00;1.70;;;;;;;18.13;29.85;99795.58;436409;1251;139786;-64
2023/05/11 10:26:34;;;;;;;2.40;1.90;;;;;;;17.82;30.34;99795.38;436602;1254;138858;-64
2023/05/11 10:36:40;;;;;;;2.50;1.60;;;;;;;17.69;30.82;99782.77;436873;1251;138500;-64
2023/05/11 10:47:03;;;;;;;2.20;1.40;;;;;;;17.67;31.21;99783.28;436397;1251;140080;-65
2023/05/11 10:57:24;;;;;;;2.80;1.80;;;;;;;17.60;31.33;99774.04;436263;1256;139183;-62
2023/05/11 11:07:30;;;;;;;1.60;1.50;;;;;;;17.66;31.59;99771.34;436761;1251;139533;-64
2023/05/11 11:17:36;;;;;;;2.00;1.80;;;;;;;17.65;31.71;99762.70;436758;1254;138295;-63
2023/05/11 11:27:59;;;;;;;3.40;1.90;;;;;;;17.73;31.78;99765.39;436812;1250;140239;-64
2023/05/11 11:38:05;;;;;;;1.70;1.60;;;;;;;17.93;31.88;99757.36;436832;1251;138908;-64
2023/05/11 11:48:16;;;;;;;2.60;1.60;;;;;;;18.11;32.19;99758.45;436819;1250;138303;-64
2023/05/11 11:58:58;;;;;;;3.70;1.60;;;;;;;18.20;31.79;99750.86;439253;1251;139133;-64
2023/05/11 12:09:04;;;;;;;3.00;1.60;;;;;;;18.26;31.81;99746.08;437077;1251;138700;-64
2023/05/11 12:19:10;;;;;;;3.50;2.00;;;;;;;18.47;31.93;99738.97;436925;1254;138383;-63
2023/05/11 12:29:17;;;;;;;4.80;2.50;;;;;;;18.65;31.57;99738.45;436540;1255;138472;-63
2023/05/11 12:39:24;;;;;;;2.30;2.10;;;;;;;18.69;31.35;99735.25;436451;1251;138628;-63
2023/05/11 12:49:30;;;;;;;3.60;2.30;;;;;;;18.87;31.21;99727.46;436650;1255;140077;-63
2023/05/11 12:59:39;;;;;;;2.70;2.00;;;;;;;18.66;31.38;99725.44;436844;1251;139167;-64
2023/05/11 13:09:57;;;;;;;3.10;1.70;;;;;;;18.87;31.02;99717.80;437018;1251;140229;-63
2023/05/11 13:20:21;;;;;;;2.10;1.70;;;;;;;18.84;30.83;99709.55;436710;1251;138641;-63
2023/05/11 13:30:26;;;;;;;3.90;1.80;;;;;;;18.93;30.74;99697.31;436809;1251;140947;-64
2023/05/11 13:40:33;;;;;;;3.60;1.90;;;;;;;18.96;30.25;99692.02;436410;1254;139165;-63
2023/05/11 13:50:39;;;;;;;3.80;1.60;;;;;;;19.09;30.18;99686.75;436736;1251;138900;-64
2023/05/11 14:00:46;;;;;;;5.60;1.40;;;;;;;18.97;30.06;99685.80;439835;1255;139829;-66
2023/05/11 14:11:08;;;;;;;2.80;1.60;;;;;;;19.30;30.30;99670.48;436482;1254;139514;-64
2023/05/11 14:21:14;;;;;;;4.10;2.10;;;;;;;19.47;30.07;99671.65;436186;1256;139974;-63
2023/05/11 14:31:20;;;;;;;2.00;1.50;;;;;;;19.16;30.26;99675.48;437044;1256;138736;-64
2023/05/11 14:41:26;;;;;;;7.80;2.20;;;;;;;18.85;30.21;99670.80;436618;1256;138580;-63
2023/05/11 14:51:32;;;;;;;2.70;1.40;;;;;;;18.74;30.53;99665.40;436466;1256;139395;-64
2023/05/11 15:01:38;;;;;;;6.20;1.70;;;;;;;18.69;30.92;99665.27;436770;1254;138838;-64
2023/05/11 15:11:44;;;;;;;4.60;2.30;;;;;;;18.47;31.43;99667.91;436499;1256;139543;-62
2023/05/11 15:21:50;;;;;;;3.10;1.80;;;;;;;18.39;31.32;99664.41;436057;1257;139819;-64
2023/05/11 15:31:56;;;;;;;3.10;1.70;;;;;;;18.45;31.60;99669.14;436825;1256;139939;-63
2023/05/11 15:42:01;;;;;;;2.30;1.40;;;;;;;18.16;31.94;99664.96;436007;1254;139429;-62
2023/05/11 15:52:08;;;;;;;5.20;2.10;;;;;;;18.09;32.21;99665.98;437226;1254;138395;-63
2023/05/11 16:02:13;;;;;;;5.10;2.40;;;;;;;18.05;32.29;99669.03;437242;1253;139418;-62
2023/05/11 16:12:19;;;;;;;4.10;2.90;;;;;;;17.97;32.50;99673.65;436320;1254;139129;-63
2023/05/11 16:22:25;;;;;;;4.50;2.20;;;;;;;17.87;32.62;99673.41;436579;1253;139670;-63
2023/05/11 16:32:30;;;;;;;3.20;2.20;;;;;;;17.76;32.90;99677.82;437103;1253;140076;-64
2023/05/11 16:42:36;;;;;;;3.30;2.10;;;;;;;17.64;32.92;99687.28;436865;1254;138921;-63
2023/05/11 16:52:42;;;;;;;3.60;1.90;;;;;;;17.53;33.11;99683.83;436344;1255;139088;-62
2023/05/11 17:02:48;;;;;;;3.40;2.40;;;;;;;18.70;32.39;99689.57;436291;1254;139143;-62
2023/05/11 17:12:54;;;;;;;4.20;1.80;;;;;;;17.88;32.43;99692.54;436720;1251;138503;-63
2023/05/11 17:23:02;;;;;;;2.70;2.10;;;;;;;17.31;33.13;99704.42;436478;1251;138595;-63
2023/05/11 17:33:08;;;;;;;2.20;2.00;;;;;;;17.34;33.27;99704.64;436629;1252;138590;-63
2023/05/11 17:43:14;;;;;;;4.90;2.20;;;;;;;16.84;33.58;99715.75;436829;1251;140412;-63
2023/05/11 17:53:20;;;;;;;5.00;2.40;;;;;;;16.36;34.15;99728.39;436791;1253;138848;-63
2023/05/11 18:03:26;;;;;;;3.80;2.40;;;;;;;16.00;34.66;99735.00;437634;1251;138847;-62
2023/05/11 18:13:32;;;;;;;2.70;1.90;;;;;;;15.62;35.18;99745.34;437092;1252;138827;-63
2023/05/11 18:23:38;;;;;;;5.10;2.80;;;;;;;15.29;35.83;99755.20;436315;1251;139068;-62
2023/05/11 18:33:44;;;;;;;8.60;3.00;;;;;;;14.94;36.22;99767.31;436394;1251;138299;-63
2023/05/11 18:43:51;;;;;;;3.50;2.50;;;;;;;14.62;36.90;99783.54;436583;1251;139107;-63
2023/05/11 18:53:57;;;;;;;5.80;2.70;;;;;;;14.39;37.52;99795.01;437240;1253;139248;-62
2023/05/11 19:04:03;;;;;;;10.30;3.40;;;;;;;14.18;38.05;99804.14;436269;1254;139068;-64
2023/05/11 19:14:11;;;;;;;4.70;2.80;;;;;;;13.94;38.57;99813.36;439887;1251;139052;-64
2023/05/11 19:24:16;;;;;;;5.90;3.80;;;;;;;13.68;39.23;99828.58;437453;1251;140426;-64
2023/05/11 19:34:22;;;;;;;8.50;3.80;;;;;;;13.41;39.72;99842.29;436908;1251;138615;-63
2023/05/11 19:44:31;;;;;;;3.60;3.30;;;;;;;13.15;40.25;99849.05;436856;1254;138426;-63
2023/05/11 19:54:37;;;;;;;6.50;4.90;;;;;;;12.85;40.88;99848.29;436365;1251;139621;-63
2023/05/11 20:04:45;;;;;;;4.20;3.70;;;;;;;12.64;41.32;99851.00;436443;1251;139439;-64
2023/05/11 20:14:50;;;;;;;;;;;;;;;12.37;41.71;99850.48;437041;1251;138663;-64
2023/05/11 20:24:56;;;;;;;6.10;4.40;;;;;;;12.08;42.05;99852.59;437092;1254;126178;-63
2023/05/11 20:35:02;;;;;;;8.40;3.80;;;;;;;11.86;42.45;99860.63;436961;1251;139567;-65
2023/05/11 20:45:10;;;;;;;5.70;3.60;;;;;;;11.73;42.69;99866.75;436276;1254;138502;-63
2023/05/11 20:55:16;;;;;;;7.40;4.00;;;;;;;11.59;42.89;99868.98;439239;1250;139266;-63
2023/05/11 21:05:22;;;;;;;5.80;3.20;;;;;;;11.48;42.88;99870.05;436735;1251;139560;-63
2023/05/11 21:15:30;;;;;;;5.10;3.10;;;;;;;11.46;42.80;99871.61;436971;1253;139532;-64
2023/05/11 21:25:36;;;;;;;4.00;2.20;;;;;;;11.55;42.24;99877.03;436226;1251;138446;-64
2023/05/11 21:35:42;;;;;;;3.30;2.60;;;;;;;11.56;41.88;99881.85;436183;1251;138960;-63
2023/05/11 21:45:48;;;;;;;2.90;2.10;;;;;;;11.58;41.65;99884.50;436644;1251;139426;-64
2023/05/11 21:55:54;;;;;;;4.40;2.20;;;;;;;11.49;41.48;99882.27;436564;1254;140289;-64
2023/05/11 22:06:00;;;;;;;2.70;2.20;;;;;;;11.46;41.54;99886.84;436562;1250;139483;-64
2023/05/11 22:16:07;;;;;;;7.20;3.90;;;;;;;11.40;41.73;99897.21;436739;1250;139020;-64
2023/05/11 22:26:13;;;;;;;3.30;2.40;;;;;;;11.28;41.97;99901.80;437558;1250;138283;-62
2023/05/11 22:36:19;;;;;;;2.60;2.40;;;;;;;11.15;42.11;99910.11;436520;1252;138990;-63
2023/05/11 22:46:24;;;;;;;5.60;2.90;;;;;;;10.96;42.34;99912.31;436049;1251;138596;-64
2023/05/11 22:56:30;;;;;;;5.70;3.40;;;;;;;10.75;42.82;99916.58;436268;1251;139737;-64
2023/05/11 23:06:36;;;;;;;3.10;2.30;;;;;;;10.57;43.20;99908.33;436058;1251;138890;-63
2023/05/11 23:16:42;;;;;;;3.80;2.80;;;;;;;10.41;43.84;99903.46;436120;1251;138475;-64
2023/05/11 23:26:48;;;;;;;4.30;3.30;;;;;;;10.29;44.22;99902.02;436078;1251;139985;-63
2023/05/11 23:36:54;;;;;;;4.30;2.90;;;;;;;10.15;44.39;99907.71;436672;1251;139722;-63
2023/05/11 23:47:00;;;;;;;5.20;2.80;;;;;;;9.97;44.90;99908.04;436483;1251;139027;-63
2023/05/11 23:57:06;;;;;;;3.20;2.90;;;;;;;9.77;45.21;99908.64;437752;1250;140083;-63
